Overview Statistics Trail Chart Weather Telemetry Raw packets
 

This is the latest recevied weather packets stored in our database for station/object KB1WCR. If no packets are shown the sender has not sent any weather packets the latest 10 day(s).

<< 29 30 31 32 33 34 35 >>
Time Temp. Humidity Pressure Rain* Wind** Luminosity Snow
1788217240 18.33° C 78% 1018.4 hPa 0 mm - 9 W/m² -
1788216935 18.89° C 76% 1018.1 hPa 0 mm - 12 W/m² -
1788216630 19.44° C 74% 1018 hPa 0 mm - 16 W/m² -
1788216325 19.44° C 72% 1018.2 hPa 0 mm - 21 W/m² -
1788216022 19.44° C 71% 1018.1 hPa 0 mm - 24 W/m² -
1788215716 20° C 69% 1018.3 hPa 0 mm - 26 W/m² -
1788215412 20° C 68% 1018.2 hPa 0 mm - 27 W/m² -
1788215108 20° C 68% 1018.3 hPa 0 mm - 29 W/m² -
1788214808 20.56° C 68% 1018.1 hPa 0 mm - 31 W/m² -
1788214504 20.56° C 67% 1018.3 hPa 0 mm - 32 W/m² -
1788214199 21.11° C 66% 1018.2 hPa 0 mm - 44 W/m² -
1788213894 21.11° C 67% 1018.2 hPa 0 mm - 39 W/m² -
1788213589 21.67° C 64% 1018.2 hPa 0 mm - 36 W/m² -
1788213285 21.67° C 65% 1018 hPa 0 mm - 37 W/m² -
1788212980 21.67° C 65% 1018.2 hPa 0 mm - 81 W/m² -
1788212677 22.22° C 63% 1018.2 hPa 0 mm - 86 W/m² -
1788212373 22.22° C 61% 1018.4 hPa 0 mm - 100 W/m² -
1788212069 22.22° C 62% 1018.2 hPa 0 mm - 107 W/m² -
1788211770 22.78° C 63% 1018.2 hPa 0 mm - 158 W/m² -
1788211466 22.78° C 60% 1018.1 hPa 0 mm - 174 W/m² -
1788211166 23.33° C 58% 1018.1 hPa 0 mm - 160 W/m² -
1788210860 23.33° C 58% 1018.3 hPa 0 mm - 202 W/m² -
1788210554 23.89° C 56% 1018.2 hPa 0 mm - 184 W/m² -
1788210250 23.33° C 59% 1018.3 hPa 0 mm - 230 W/m² -
1788209945 22.78° C 59% 1018.2 hPa 0 mm - 236 W/m² -

* Rain latest hour (hover to see other rain measurements)
** Current wind speed in m/s (hover to see current wind gust speed)